Time;durP1;ratioP1;P1;durP2;ratioP2;P2;SDS_P1;SDS_P2;PMS_P1;PMS_P2;Temp;Humidity;BMP_temperature;BMP_pressure;BME280_temperature;BME280_humidity;BME280_pressure;Samples;Min_cycle;Max_cycle;Signal;HPM_P1;HPM_P2
2022/04/27 00:00:56;;;;;;;6.27;4.13;;;13.30;99.90;;;;;;4934170;29;20238;-72
2022/04/27 00:03:21;;;;;;;9.70;4.60;;;13.30;99.90;;;;;;4934352;28;20254;-71
2022/04/27 00:05:47;;;;;;;9.10;3.93;;;13.30;99.90;;;;;;4933572;29;20211;-71
2022/04/27 00:08:13;;;;;;;7.60;4.13;;;13.20;99.90;;;;;;4933940;28;20212;-71
2022/04/27 00:10:38;;;;;;;6.40;3.90;;;13.10;99.90;;;;;;4934532;29;20638;-71
2022/04/27 00:13:04;;;;;;;6.17;4.10;;;13.10;99.90;;;;;;4933751;29;20180;-71
2022/04/27 00:15:29;;;;;;;6.83;4.10;;;12.90;99.90;;;;;;4934406;28;20204;-71
2022/04/27 00:17:55;;;;;;;4.93;3.93;;;12.90;99.90;;;;;;4932828;29;20204;-71
2022/04/27 00:20:20;;;;;;;6.87;4.53;;;12.90;99.90;;;;;;4934094;28;20212;-71
2022/04/27 00:22:46;;;;;;;6.83;4.50;;;12.90;99.90;;;;;;4934358;29;20207;-71
2022/04/27 00:25:11;;;;;;;8.37;4.43;;;12.80;99.90;;;;;;4934144;28;20180;-72
2022/04/27 00:27:37;;;;;;;6.20;3.67;;;12.80;99.90;;;;;;4934444;29;20188;-71
2022/04/27 00:30:03;;;;;;;12.43;4.67;;;12.80;99.90;;;;;;4916901;29;20231;-71
2022/04/27 00:32:28;;;;;;;4.63;4.03;;;12.80;99.90;;;;;;4934112;28;20219;-71
2022/04/27 00:34:54;;;;;;;6.80;4.03;;;12.70;99.90;;;;;;4934166;29;20203;-71
2022/04/27 00:37:19;;;;;;;6.40;3.93;;;12.60;99.90;;;;;;4934140;28;20697;-71
2022/04/27 00:39:45;;;;;;;5.37;3.70;;;12.50;99.90;;;;;;4933736;29;20176;-71
2022/04/27 00:42:24;;;;;;;6.10;4.63;;;12.50;99.90;;;;;;4932847;29;20211;-71
2022/04/27 00:44:49;;;;;;;5.00;3.73;;;12.50;99.90;;;;;;4926822;29;20239;-71
2022/04/27 00:47:17;;;;;;;6.03;4.57;;;12.50;99.90;;;;;;4934004;29;20263;-71
2022/04/27 00:49:48;;;;;;;6.03;4.77;;;12.40;99.90;;;;;;4931706;29;20243;-70
2022/04/27 00:52:14;;;;;;;6.30;4.40;;;12.40;99.90;;;;;;4934109;29;20172;-72
2022/04/27 00:54:45;;;;;;;5.33;4.40;;;12.30;99.90;;;;;;4933673;29;20180;-71
2022/04/27 00:57:11;;;;;;;7.80;5.70;;;12.30;99.90;;;;;;4933145;29;20244;-70
2022/04/27 00:59:38;;;;;;;5.20;4.23;;;12.30;99.90;;;;;;4933059;29;20220;-71
2022/04/27 01:02:06;;;;;;;4.40;4.00;;;12.10;99.90;;;;;;4933963;28;20215;-71
2022/04/27 01:04:36;;;;;;;7.53;4.73;;;12.00;99.90;;;;;;4932608;29;20211;-71
2022/04/27 01:07:03;;;;;;;6.27;4.40;;;12.00;99.90;;;;;;4934443;29;20223;-71
2022/04/27 01:09:30;;;;;;;7.10;4.00;;;11.80;99.90;;;;;;4932846;28;20772;-71
2022/04/27 01:11:57;;;;;;;7.63;4.20;;;11.80;99.90;;;;;;4933980;29;20294;-71
2022/04/27 01:14:22;;;;;;;6.13;4.17;;;11.80;99.90;;;;;;4933528;28;20215;-71
2022/04/27 01:16:52;;;;;;;7.43;4.07;;;11.70;99.90;;;;;;4933730;29;20271;-71
2022/04/27 01:19:18;;;;;;;6.13;4.00;;;11.70;99.90;;;;;;4931747;28;20242;-71
2022/04/27 01:21:44;;;;;;;6.37;4.40;;;11.70;99.90;;;;;;4935007;29;20190;-71
2022/04/27 01:24:10;;;;;;;6.83;4.40;;;11.60;99.90;;;;;;4938317;29;20211;-71
2022/04/27 01:26:37;;;;;;;6.67;5.03;;;11.50;99.90;;;;;;4938571;29;20220;-71
2022/04/27 01:29:03;;;;;;;8.67;4.67;;;11.50;99.90;;;;;;4939379;29;20215;-70
2022/04/27 01:31:29;;;;;;;7.10;4.50;;;11.40;99.90;;;;;;4940141;28;20255;-70
2022/04/27 01:33:55;;;;;;;6.70;4.20;;;11.40;99.90;;;;;;4940458;29;20190;-71
2022/04/27 01:36:20;;;;;;;6.60;4.30;;;11.40;99.90;;;;;;4938508;29;20271;-71
2022/04/27 01:38:46;;;;;;;7.37;4.83;;;11.30;99.90;;;;;;4939179;28;20215;-71
2022/04/27 01:41:12;;;;;;;7.13;4.63;;;11.40;99.90;;;;;;4939517;29;20214;-71
2022/04/27 01:43:38;;;;;;;5.63;4.50;;;11.40;99.90;;;;;;4939778;28;20211;-71
2022/04/27 01:46:07;;;;;;;5.97;4.67;;;11.30;99.90;;;;;;4941490;29;20536;-71
2022/04/27 01:48:33;;;;;;;12.17;5.83;;;11.30;99.90;;;;;;4937620;29;20239;-71
2022/04/27 01:50:58;;;;;;;6.70;5.03;;;11.30;99.90;;;;;;4938559;29;20246;-71
2022/04/27 01:56:08;;;;;;;9.87;5.70;;;11.20;99.90;;;;;;4939378;29;20222;-71
2022/04/27 01:58:33;;;;;;;10.37;5.30;;;11.10;99.90;;;;;;4938919;28;20590;-71
2022/04/27 02:01:00;;;;;;;7.33;5.10;;;11.20;99.90;;;;;;4938867;29;20315;-71
2022/04/27 02:03:25;;;;;;;9.50;6.33;;;11.10;99.90;;;;;;4939584;29;20716;-71
2022/04/27 02:05:52;;;;;;;8.13;5.90;;;11.00;99.90;;;;;;4939779;28;20219;-71
2022/04/27 02:08:18;;;;;;;9.67;5.40;;;10.90;99.90;;;;;;4938672;28;20298;-71
2022/04/27 02:10:44;;;;;;;8.47;5.90;;;10.90;99.90;;;;;;4939523;28;20211;-71
2022/04/27 02:13:10;;;;;;;6.63;5.60;;;10.80;99.90;;;;;;4937325;29;20657;-71
2022/04/27 02:15:37;;;;;;;7.97;5.87;;;10.80;99.90;;;;;;4938288;29;20318;-71
2022/04/27 02:18:03;;;;;;;8.33;6.00;;;10.70;99.90;;;;;;4939830;28;20219;-71
2022/04/27 02:20:29;;;;;;;11.40;6.63;;;10.60;99.90;;;;;;4945765;29;20731;-71
2022/04/27 02:22:55;;;;;;;9.67;6.20;;;10.60;99.90;;;;;;4946127;28;20294;-70
2022/04/27 02:25:22;;;;;;;10.13;6.60;;;10.70;99.90;;;;;;4939923;29;20195;-71
2022/04/27 02:27:49;;;;;;;8.27;5.80;;;10.70;99.90;;;;;;4938769;29;20711;-70
2022/04/27 02:30:15;;;;;;;8.90;6.10;;;10.50;99.90;;;;;;4939176;28;20219;-70
2022/04/27 02:32:40;;;;;;;8.70;6.23;;;10.60;99.90;;;;;;4939521;29;20215;-70
2022/04/27 02:35:06;;;;;;;8.73;6.37;;;10.50;99.90;;;;;;4935502;28;20208;-71
2022/04/27 02:37:33;;;;;;;9.37;6.73;;;10.50;99.90;;;;;;4936208;29;20219;-71
2022/04/27 02:39:59;;;;;;;12.00;6.70;;;10.50;99.90;;;;;;4936534;29;20187;-71
2022/04/27 02:42:25;;;;;;;12.10;6.40;;;10.40;99.90;;;;;;4934808;29;20216;-71
2022/04/27 02:44:51;;;;;;;9.30;6.53;;;10.50;99.90;;;;;;4936395;29;20230;-70
2022/04/27 02:47:16;;;;;;;10.40;6.60;;;10.60;99.90;;;;;;4935384;29;20704;-70
2022/04/27 02:52:26;;;;;;;10.97;6.17;;;10.60;99.90;;;;;;4936278;28;20239;-71
2022/04/27 02:54:51;;;;;;;10.27;6.43;;;10.70;99.90;;;;;;4931279;29;20191;-71
2022/04/27 02:57:17;;;;;;;8.27;5.77;;;10.60;99.90;;;;;;4935227;29;20211;-71
2022/04/27 02:59:43;;;;;;;7.07;6.10;;;10.70;99.90;;;;;;4935051;28;20773;-71
2022/04/27 03:02:09;;;;;;;10.30;6.87;;;10.70;99.90;;;;;;4935881;29;20581;-71
2022/04/27 03:04:35;;;;;;;11.37;6.57;;;10.70;99.90;;;;;;4935745;28;20215;-71
2022/04/27 03:07:00;;;;;;;9.37;6.43;;;10.60;99.90;;;;;;4936172;29;20176;-71
2022/04/27 03:09:26;;;;;;;8.70;6.17;;;10.70;99.90;;;;;;4934959;29;20212;-71
2022/04/27 03:11:52;;;;;;;9.80;6.53;;;10.60;99.90;;;;;;4935635;28;20701;-71
2022/04/27 03:14:18;;;;;;;10.40;7.17;;;10.60;99.90;;;;;;4934360;29;20227;-71
2022/04/27 03:16:44;;;;;;;11.90;6.93;;;10.50;99.90;;;;;;4935449;28;20219;-71
2022/04/27 03:19:10;;;;;;;8.00;6.37;;;10.40;99.90;;;;;;4935311;29;20208;-71
2022/04/27 03:21:35;;;;;;;10.07;6.90;;;10.50;99.90;;;;;;4934762;29;21344;-71
2022/04/27 03:24:01;;;;;;;9.83;6.33;;;10.50;99.90;;;;;;4935587;28;20216;-71
2022/04/27 03:26:26;;;;;;;8.80;6.30;;;10.50;99.90;;;;;;4935144;28;20686;-71
2022/04/27 03:28:52;;;;;;;13.30;6.93;;;10.50;99.90;;;;;;4934761;28;20199;-71
2022/04/27 03:31:17;;;;;;;12.53;7.50;;;10.50;99.90;;;;;;4935334;29;20190;-71
2022/04/27 03:33:43;;;;;;;9.77;6.93;;;10.50;99.90;;;;;;4935651;29;20183;-71
2022/04/27 03:36:08;;;;;;;10.87;6.53;;;10.40;99.90;;;;;;4935020;28;20216;-71
2022/04/27 03:38:38;;;;;;;10.90;6.83;;;10.40;99.90;;;;;;4934388;29;20605;-71
2022/04/27 03:41:04;;;;;;;8.63;6.70;;;10.30;99.90;;;;;;4935211;28;20208;-71
2022/04/27 03:43:29;;;;;;;11.53;6.60;;;10.30;99.90;;;;;;4935062;29;20660;-71
2022/04/27 03:45:55;;;;;;;9.30;6.47;;;10.20;99.90;;;;;;4935331;29;20259;-71
2022/04/27 03:48:20;;;;;;;10.90;6.77;;;10.30;99.90;;;;;;4932791;29;20231;-72
2022/04/27 03:50:46;;;;;;;11.60;7.50;;;10.40;99.90;;;;;;4935001;29;20580;-72
2022/04/27 03:53:11;;;;;;;10.17;6.90;;;10.30;99.90;;;;;;4934946;28;20244;-71
2022/04/27 03:55:37;;;;;;;11.10;7.53;;;10.20;99.90;;;;;;4934648;29;20215;-71
2022/04/27 03:58:06;;;;;;;11.77;6.87;;;10.30;99.90;;;;;;4934641;29;20210;-72
2022/04/27 04:00:32;;;;;;;13.77;7.93;;;10.30;99.90;;;;;;4933328;29;20236;-71
2022/04/27 04:03:00;;;;;;;9.87;7.27;;;10.30;99.90;;;;;;4933528;29;20722;-72
2022/04/27 04:05:26;;;;;;;10.73;7.50;;;10.30;99.90;;;;;;4933248;29;20211;-71
2022/04/27 04:07:51;;;;;;;10.33;7.43;;;10.30;99.90;;;;;;4934431;29;20235;-72
2022/04/27 04:10:17;;;;;;;9.87;6.70;;;10.30;99.90;;;;;;4934451;29;20187;-71
2022/04/27 04:12:47;;;;;;;11.60;7.43;;;10.30;99.90;;;;;;4933510;29;20176;-71
2022/04/27 04:15:13;;;;;;;14.07;7.63;;;10.40;99.90;;;;;;4933789;29;20219;-71
2022/04/27 04:17:44;;;;;;;9.80;7.17;;;10.60;99.90;;;;;;4933938;28;20223;-72
2022/04/27 04:20:19;;;;;;;13.27;7.47;;;10.60;99.90;;;;;;4932808;29;20274;-71
2022/04/27 04:22:46;;;;;;;9.67;6.93;;;10.80;99.90;;;;;;4934335;28;20207;-71
2022/04/27 04:30:42;;;;;;;12.50;7.60;;;11.00;99.90;;;;;;4934676;29;20211;-71
2022/04/27 04:33:07;;;;;;;15.77;8.33;;;11.30;99.90;;;;;;4934389;29;20219;-71
2022/04/27 04:35:34;;;;;;;14.47;7.70;;;12.10;99.90;;;;;;4933793;28;20665;-72
2022/04/27 04:37:59;;;;;;;13.93;8.17;;;14.10;99.90;;;;;;4933347;29;20295;-71
2022/04/27 04:40:25;;;;;;;12.93;7.40;;;15.50;99.90;;;;;;4933913;28;20219;-71
2022/04/27 04:42:51;;;;;;;14.30;7.97;;;16.70;99.90;;;;;;4934793;29;20271;-71
2022/04/27 04:45:16;;;;;;;10.63;7.28;;;17.80;99.90;;;;;;4934213;29;20208;-71
2022/04/27 04:47:42;;;;;;;13.70;7.75;;;18.40;99.90;;;;;;4933459;28;20218;-72
2022/04/27 04:50:09;;;;;;;11.75;7.78;;;18.90;99.90;;;;;;4955220;23;20251;-75
2022/04/27 04:52:35;;;;;;;12.07;7.90;;;19.30;99.90;;;;;;4917485;29;20219;-76
2022/04/27 04:55:01;;;;;;;11.57;7.55;;;19.80;99.90;;;;;;4933703;29;20207;-77
2022/04/27 04:57:26;;;;;;;8.65;6.80;;;19.90;99.90;;;;;;4918283;29;20601;-78
2022/04/27 04:59:52;;;;;;;9.88;7.28;;;20.00;99.90;;;;;;4934224;29;20208;-75
2022/04/27 05:02:18;;;;;;;9.95;6.95;;;20.40;99.90;;;;;;4935049;28;20211;-75
2022/04/27 05:04:43;;;;;;;12.18;7.85;;;20.70;99.90;;;;;;4934523;29;20204;-75
2022/04/27 05:07:09;;;;;;;9.48;6.97;;;19.80;99.90;;;;;;4935052;29;20612;-76
2022/04/27 05:09:34;;;;;;;12.02;7.70;;;21.00;99.90;;;;;;4933786;28;20307;-76
2022/04/27 05:12:00;;;;;;;11.52;8.13;;;22.00;99.90;;;;;;4933747;29;20590;-77
2022/04/27 05:14:25;;;;;;;11.85;6.68;;;21.10;99.90;;;;;;4935081;28;20223;-78
2022/04/27 05:16:51;;;;;;;12.07;7.32;;;20.20;99.90;;;;;;4935210;29;20215;-77
2022/04/27 05:19:16;;;;;;;13.07;7.97;;;21.00;99.90;;;;;;4932818;28;20586;-74
2022/04/27 05:21:42;;;;;;;13.27;7.93;;;20.60;99.90;;;;;;4935712;29;20187;-78
2022/04/27 05:24:07;;;;;;;15.52;7.90;;;21.70;99.90;;;;;;4935658;29;20294;-76
2022/04/27 05:26:33;;;;;;;11.52;7.82;;;21.10;99.90;;;;;;4933791;29;20636;-77
2022/04/27 05:32:04;;;;;;;9.05;7.30;;;22.90;98.70;;;;;;4916922;29;20772;-77
2022/04/27 05:34:30;;;;;;;9.63;7.07;;;22.80;95.60;;;;;;4898712;29;20582;-77
2022/04/27 05:36:56;;;;;;;10.38;7.22;;;21.10;96.80;;;;;;4920627;29;20215;-77
2022/04/27 05:39:22;;;;;;;10.07;6.63;;;22.50;97.30;;;;;;4934850;28;20700;-78
2022/04/27 05:41:51;;;;;;;13.55;7.00;;;23.10;96.40;;;;;;4936198;29;20211;-76
2022/04/27 05:44:19;;;;;;;11.43;7.78;;;23.40;94.80;;;;;;4935358;28;20216;-77
2022/04/27 05:46:45;;;;;;;12.20;7.75;;;24.20;93.50;;;;;;4935820;29;20211;-76
2022/04/27 05:49:11;;;;;;;9.38;7.32;;;24.40;92.30;;;;;;4941423;29;20221;-76
2022/04/27 05:51:37;;;;;;;10.88;8.13;;;24.50;91.70;;;;;;4954998;29;20214;-77
2022/04/27 05:54:03;;;;;;;10.07;7.28;;;24.40;91.30;;;;;;4938161;29;20278;-76
2022/04/27 05:56:28;;;;;;;12.20;7.75;;;25.40;90.90;;;;;;4955049;28;20225;-76
2022/04/27 05:58:54;;;;;;;9.73;7.95;;;25.50;86.90;;;;;;4955804;28;20840;-77
2022/04/27 06:01:20;;;;;;;10.70;7.15;;;25.60;87.50;;;;;;4939061;28;20670;-75
2022/04/27 06:03:45;;;;;;;9.52;7.60;;;25.90;84.00;;;;;;4958809;29;20225;-79
2022/04/27 06:06:11;;;;;;;10.02;7.60;;;24.90;82.50;;;;;;4940075;29;20211;-77
2022/04/27 06:08:36;;;;;;;9.40;7.18;;;24.30;84.30;;;;;;4939192;28;20293;-77
2022/04/27 06:11:02;;;;;;;9.63;6.53;;;24.90;83.70;;;;;;4959819;29;20214;-78
2022/04/27 06:13:28;;;;;;;9.02;7.60;;;23.60;84.10;;;;;;4960744;28;20202;-79
2022/04/27 06:15:53;;;;;;;7.82;6.70;;;23.50;87.30;;;;;;4960905;29;20207;-77
2022/04/27 06:18:19;;;;;;;10.40;7.40;;;25.00;84.50;;;;;;4960262;29;20218;-77
2022/04/27 06:20:44;;;;;;;10.30;7.25;;;25.60;81.50;;;;;;4959718;28;20215;-77
2022/04/27 06:23:10;;;;;;;8.40;7.10;;;24.20;81.60;;;;;;4960786;29;20589;-77
2022/04/27 06:25:39;;;;;;;10.05;7.53;;;24.50;82.40;;;;;;4942892;29;20211;-76
2022/04/27 06:28:04;;;;;;;8.68;6.90;;;25.30;81.80;;;;;;4960375;29;20314;-77
2022/04/27 06:30:30;;;;;;;10.52;7.68;;;26.50;79.00;;;;;;4942311;29;20238;-75
2022/04/27 06:32:55;;;;;;;11.70;7.35;;;27.10;75.80;;;;;;4959209;28;20218;-76
2022/04/27 06:35:21;;;;;;;10.73;7.32;;;27.30;74.80;;;;;;4959064;29;20211;-76
2022/04/27 06:37:46;;;;;;;7.95;7.13;;;27.40;73.70;;;;;;4942036;29;20222;-77
2022/04/27 06:40:12;;;;;;;14.52;7.32;;;27.70;73.10;;;;;;4957768;28;20203;-76
2022/04/27 06:42:43;;;;;;;8.93;7.75;;;26.70;70.50;;;;;;4958648;29;20183;-77
2022/04/27 06:45:09;;;;;;;11.05;7.47;;;27.60;70.80;;;;;;4957140;28;20223;-77
2022/04/27 06:47:35;;;;;;;9.77;7.47;;;27.90;69.60;;;;;;4957529;29;20251;-76
2022/04/27 06:50:01;;;;;;;11.18;8.32;;;28.70;68.10;;;;;;4956867;28;20226;-77
2022/04/27 06:52:26;;;;;;;9.00;7.63;;;28.40;67.80;;;;;;4957454;29;20183;-77
2022/04/27 06:54:52;;;;;;;8.15;7.35;;;28.00;67.30;;;;;;4939774;29;20182;-76
2022/04/27 06:57:17;;;;;;;14.95;8.27;;;27.90;67.70;;;;;;4955874;28;20245;-77
2022/04/27 06:59:43;;;;;;;10.98;7.90;;;27.40;67.70;;;;;;4952080;28;20265;-77
2022/04/27 07:02:10;;;;;;;7.78;7.07;;;28.70;66.20;;;;;;4934640;29;20268;-75
2022/04/27 07:04:36;;;;;;;8.45;7.65;;;29.30;63.40;;;;;;4939401;29;20569;-75
2022/04/27 07:07:04;;;;;;;9.60;6.78;;;28.70;63.10;;;;;;4957547;29;20265;-75
2022/04/27 07:09:31;;;;;;;8.68;6.80;;;29.40;62.70;;;;;;4957723;28;20221;-74
2022/04/27 07:11:57;;;;;;;8.02;6.85;;;30.60;61.00;;;;;;4941797;29;20226;-75
2022/04/27 07:14:23;;;;;;;8.38;6.80;;;30.00;60.30;;;;;;4942194;29;20208;-73
2022/04/27 07:16:48;;;;;;;8.30;7.43;;;29.80;59.80;;;;;;4940250;29;20249;-75
2022/04/27 07:19:14;;;;;;;10.73;7.85;;;29.60;59.80;;;;;;4949202;28;20215;-75
2022/04/27 07:21:40;;;;;;;7.60;6.90;;;30.00;59.70;;;;;;4957267;29;20186;-76
2022/04/27 07:24:06;;;;;;;13.15;6.55;;;30.30;59.60;;;;;;4941984;29;20703;-75
2022/04/27 07:26:32;;;;;;;7.47;6.35;;;30.10;58.90;;;;;;4936767;29;20226;-74
2022/04/27 07:28:58;;;;;;;6.82;6.00;;;30.70;58.50;;;;;;4951989;28;20233;-77
2022/04/27 07:31:25;;;;;;;8.45;6.45;;;31.10;58.60;;;;;;4937877;28;20250;-74
2022/04/27 07:33:51;;;;;;;7.93;6.45;;;32.80;56.40;;;;;;4939515;29;20174;-76
2022/04/27 07:36:17;;;;;;;8.85;6.70;;;32.20;55.80;;;;;;4944489;28;20217;-76
2022/04/27 07:38:43;;;;;;;7.03;5.90;;;31.90;55.40;;;;;;4954998;28;20218;-75
2022/04/27 07:41:08;;;;;;;9.13;7.20;;;31.60;55.60;;;;;;4950127;29;20699;-76
2022/04/27 07:43:34;;;;;;;7.85;6.40;;;30.40;56.10;;;;;;4941196;28;20219;-75
2022/04/27 07:46:00;;;;;;;7.90;5.97;;;30.60;56.20;;;;;;4940328;29;20210;-73
2022/04/27 07:48:32;;;;;;;8.27;6.25;;;30.20;56.40;;;;;;4937796;28;20210;-77
2022/04/27 07:50:59;;;;;;;8.38;7.47;;;30.90;56.10;;;;;;4957559;28;20242;-76
2022/04/27 07:53:24;;;;;;;6.38;5.78;;;30.20;55.20;;;;;;4936794;29;20215;-76
2022/04/27 07:55:50;;;;;;;8.68;6.72;;;29.70;56.20;;;;;;4954974;29;20232;-76
2022/04/27 07:58:15;;;;;;;5.95;5.00;;;30.30;56.70;;;;;;4937645;29;20206;-76
2022/04/27 08:00:41;;;;;;;6.07;4.90;;;30.70;55.20;;;;;;4955390;28;20317;-78
2022/04/27 08:03:06;;;;;;;5.53;4.75;;;30.70;54.40;;;;;;4955985;29;20179;-74
2022/04/27 08:05:32;;;;;;;7.55;4.60;;;30.40;54.20;;;;;;4955980;29;20601;-76
2022/04/27 08:07:57;;;;;;;8.23;4.97;;;29.90;55.10;;;;;;4955479;29;20209;-76
2022/04/27 08:10:23;;;;;;;24.88;18.45;;;30.10;55.10;;;;;;4937959;29;20202;-75
2022/04/27 08:12:49;;;;;;;6.50;4.88;;;30.80;54.40;;;;;;4955302;29;20231;-75
2022/04/27 08:15:16;;;;;;;9.27;6.30;;;29.90;53.50;;;;;;4956523;29;20183;-75
2022/04/27 08:17:55;;;;;;;5.35;4.30;;;29.70;54.30;;;;;;4955938;29;20566;-75
2022/04/27 08:23:11;;;;;;;5.60;3.40;;;29.60;53.90;;;;;;4950845;29;20217;-75
2022/04/27 08:25:37;;;;;;;4.82;3.28;;;29.50;54.20;;;;;;4954875;29;20218;-75
2022/04/27 08:28:06;;;;;;;5.00;3.50;;;29.60;53.90;;;;;;4952859;29;20211;-75
2022/04/27 08:30:35;;;;;;;7.80;3.80;;;29.60;53.70;;;;;;4953296;28;20222;-74
2022/04/27 08:33:02;;;;;;;4.22;2.78;;;29.60;54.40;;;;;;4952975;28;20172;-75
2022/04/27 08:35:27;;;;;;;4.28;2.50;;;29.70;52.40;;;;;;4954302;29;20234;-76
2022/04/27 08:37:54;;;;;;;5.68;3.17;;;29.30;53.30;;;;;;4935713;29;20740;-73
2022/04/27 08:40:24;;;;;;;3.70;2.00;;;29.40;52.10;;;;;;4952975;28;20725;-75
2022/04/27 08:42:52;;;;;;;2.50;1.90;;;28.50;52.00;;;;;;4937350;29;20221;-76
2022/04/27 08:45:20;;;;;;;2.95;2.15;;;28.40;52.70;;;;;;4938500;28;20182;-75
2022/04/27 08:47:48;;;;;;;2.67;2.10;;;28.30;52.50;;;;;;4936275;29;20235;-72
2022/04/27 08:50:16;;;;;;;3.10;2.80;;;28.50;52.80;;;;;;4952144;28;20243;-76
2022/04/27 08:52:43;;;;;;;4.57;2.63;;;28.60;52.00;;;;;;4939140;29;20302;-76
2022/04/27 08:55:09;;;;;;;3.45;3.15;;;27.50;52.00;;;;;;4936548;29;20585;-76
2022/04/27 08:57:36;;;;;;;5.03;2.83;;;26.10;53.80;;;;;;4954489;29;20708;-76
2022/04/27 09:00:04;;;;;;;3.70;2.30;;;25.50;55.50;;;;;;4937018;29;20235;-74
2022/04/27 09:02:30;;;;;;;5.85;2.75;;;26.10;55.80;;;;;;4961098;29;20207;-76
2022/04/27 09:05:13;;;;;;;3.10;2.60;;;26.70;56.10;;;;;;4956591;29;20238;-76
2022/04/27 09:07:44;;;;;;;6.30;2.60;;;27.20;56.10;;;;;;4959180;29;20218;-75
2022/04/27 09:10:15;;;;;;;3.95;2.78;;;27.60;55.60;;;;;;4959293;28;20302;-76
2022/04/27 09:12:45;;;;;;;8.48;2.97;;;28.00;55.50;;;;;;4953250;29;20207;-77
2022/04/27 09:15:11;;;;;;;3.88;2.60;;;27.60;54.40;;;;;;4953801;29;20622;-75
2022/04/27 09:23:19;;;;;;;4.78;3.05;;;25.70;56.20;;;;;;4952624;29;20686;-74
2022/04/27 09:25:45;;;;;;;7.30;4.30;;;25.50;56.30;;;;;;4953885;29;20234;-73
2022/04/27 09:28:10;;;;;;;3.47;2.92;;;26.00;56.50;;;;;;4935757;29;20215;-74
2022/04/27 09:30:36;;;;;;;4.78;3.38;;;26.10;55.20;;;;;;4935181;29;20211;-74
2022/04/27 09:33:01;;;;;;;3.95;2.42;;;25.60;55.30;;;;;;4935712;29;20187;-76
2022/04/27 09:35:34;;;;;;;3.17;2.33;;;25.20;55.90;;;;;;4954412;29;20211;-75
2022/04/27 09:38:19;;;;;;;7.88;4.32;;;24.70;56.40;;;;;;4944515;28;20719;-77
2022/04/27 09:40:45;;;;;;;7.53;4.68;;;24.40;57.80;;;;;;4955620;28;20227;-77
2022/04/27 09:43:13;;;;;;;3.17;2.60;;;24.80;56.80;;;;;;4957734;28;20207;-77
2022/04/27 09:45:39;;;;;;;5.53;3.35;;;24.40;56.60;;;;;;4962618;29;20211;-77
2022/04/27 09:48:05;;;;;;;6.03;2.85;;;24.10;56.70;;;;;;4961388;29;20206;-76
2022/04/27 09:50:48;;;;;;;3.50;2.55;;;24.10;57.40;;;;;;4944611;29;20233;-76
2022/04/27 09:53:17;;;;;;;10.35;6.35;;;23.70;58.30;;;;;;4962955;29;20216;-78
2022/04/27 09:55:55;;;;;;;5.57;4.07;;;23.70;58.80;;;;;;4943133;29;20706;-78
2022/04/27 09:58:25;;;;;;;7.57;3.55;;;23.60;59.30;;;;;;4954260;29;20210;-78
2022/04/27 10:00:56;;;;;;;3.63;2.38;;;23.80;58.60;;;;;;4956056;29;20218;-78
2022/04/27 10:03:24;;;;;;;2.75;2.13;;;23.90;58.30;;;;;;4957157;29;20170;-78
2022/04/27 10:05:50;;;;;;;2.67;2.15;;;24.10;58.00;;;;;;4957969;29;20177;-78
2022/04/27 10:08:15;;;;;;;4.63;3.30;;;23.90;57.90;;;;;;4956452;29;20298;-77
2022/04/27 10:10:42;;;;;;;4.03;2.00;;;23.50;58.50;;;;;;4958817;28;20226;-77
2022/04/27 10:13:14;;;;;;;4.50;2.13;;;23.90;58.60;;;;;;4969741;29;20211;-77
2022/04/27 10:15:43;;;;;;;2.25;1.90;;;23.40;58.80;;;;;;4968603;29;20207;-77
2022/04/27 10:18:10;;;;;;;5.60;2.67;;;23.00;59.20;;;;;;4949346;29;20544;-78
2022/04/27 10:20:36;;;;;;;11.77;4.35;;;22.90;60.20;;;;;;4953897;29;20199;-79
2022/04/27 10:23:27;;;;;;;7.57;3.20;;;23.30;67.30;;;;;;4943803;29;20700;-79
2022/04/27 10:26:11;;;;;;;5.88;2.75;;;23.10;62.30;;;;;;4959363;29;20691;-76
2022/04/27 10:28:42;;;;;;;3.25;2.03;;;22.70;63.30;;;;;;4941899;28;20209;-76
2022/04/27 10:31:08;;;;;;;5.65;3.55;;;22.40;61.70;;;;;;4952717;29;20211;-79
2022/04/27 10:33:42;;;;;;;5.90;3.20;;;21.30;60.10;;;;;;4955785;29;20207;-77
2022/04/27 10:36:29;;;;;;;2.83;2.30;;;21.40;67.90;;;;;;4956952;29;20191;-78
2022/04/27 10:39:09;;;;;;;8.25;2.67;;;21.60;62.60;;;;;;4955429;28;20211;-75
2022/04/27 10:41:35;;;;;;;3.63;2.28;;;22.30;61.80;;;;;;4938491;29;20211;-80
2022/04/27 10:44:01;;;;;;;3.60;2.35;;;22.50;63.80;;;;;;4955364;29;20207;-78
2022/04/27 10:46:41;;;;;;;3.33;2.10;;;21.70;64.60;;;;;;4937996;29;20740;-75
2022/04/27 10:49:24;;;;;;;3.40;2.25;;;21.70;65.00;;;;;;4954406;28;20223;-74
2022/04/27 10:52:06;;;;;;;4.35;2.05;;;22.00;62.00;;;;;;4948263;23;20227;-75
2022/04/27 10:54:34;;;;;;;3.20;2.00;;;22.30;63.70;;;;;;4929503;29;20238;-76
2022/04/27 10:57:15;;;;;;;5.63;2.30;;;21.90;67.00;;;;;;4933344;29;20283;-75
2022/04/27 10:59:51;;;;;;;5.72;2.92;;;22.70;64.30;;;;;;4933957;29;20215;-75
2022/04/27 11:02:39;;;;;;;7.15;3.70;;;22.90;62.10;;;;;;4932408;29;20271;-77
2022/04/27 11:05:22;;;;;;;5.20;2.65;;;23.10;60.40;;;;;;4914986;29;20231;-74
2022/04/27 11:08:03;;;;;;;5.90;3.17;;;23.30;63.30;;;;;;4933322;29;20204;-75
2022/04/27 11:10:28;;;;;;;5.00;3.35;;;23.40;62.60;;;;;;4912993;29;20689;-75
2022/04/27 11:12:56;;;;;;;3.08;1.90;;;23.30;63.70;;;;;;4934635;29;20208;-76
2022/04/27 11:15:23;;;;;;;4.47;2.92;;;23.00;59.70;;;;;;4931496;29;20191;-73
2022/04/27 11:18:03;;;;;;;5.60;3.53;;;22.00;59.80;;;;;;4947128;29;20199;-74
2022/04/27 11:20:37;;;;;;;7.25;4.82;;;22.00;64.50;;;;;;4932286;28;20305;-75
2022/04/27 11:23:08;;;;;;;5.13;2.97;;;21.80;62.90;;;;;;4932447;29;20206;-72
2022/04/27 11:25:40;;;;;;;4.93;2.60;;;21.80;64.10;;;;;;4933405;29;20203;-73
2022/04/27 11:28:06;;;;;;;5.55;3.85;;;21.60;63.90;;;;;;4933383;29;20718;-75
2022/04/27 11:30:32;;;;;;;4.03;1.95;;;22.00;65.20;;;;;;4939089;29;20681;-75
2022/04/27 11:33:00;;;;;;;5.05;3.22;;;22.10;62.60;;;;;;4933265;29;20184;-75
2022/04/27 11:35:40;;;;;;;4.18;3.70;;;22.00;62.60;;;;;;4933300;29;20278;-75
2022/04/27 11:38:08;;;;;;;9.27;3.05;;;22.30;63.00;;;;;;4933133;29;20215;-76
2022/04/27 11:40:37;;;;;;;6.22;3.67;;;22.30;62.00;;;;;;4916380;29;20207;-76
2022/04/27 11:43:06;;;;;;;4.85;3.22;;;22.30;62.80;;;;;;4933823;29;20310;-77
2022/04/27 11:45:31;;;;;;;7.22;2.10;;;22.10;62.00;;;;;;4933740;29;20708;-73
2022/04/27 11:48:10;;;;;;;4.22;2.53;;;22.30;61.10;;;;;;4917241;29;20187;-75
2022/04/27 11:50:38;;;;;;;4.65;2.35;;;22.00;59.90;;;;;;4934003;29;20274;-76
2022/04/27 11:53:06;;;;;;;6.40;2.42;;;21.90;59.50;;;;;;4934120;29;20227;-75
2022/04/27 11:55:33;;;;;;;3.63;2.35;;;21.90;59.70;;;;;;4933989;29;20294;-75
2022/04/27 11:57:59;;;;;;;6.00;4.22;;;22.20;60.50;;;;;;4933396;29;20219;-73
2022/04/27 12:00:27;;;;;;;3.83;2.50;;;22.30;60.50;;;;;;4933916;29;20222;-75
2022/04/27 12:03:06;;;;;;;4.25;3.00;;;22.20;60.00;;;;;;4917664;29;20187;-75
2022/04/27 12:05:38;;;;;;;4.47;2.72;;;22.20;59.80;;;;;;4916595;29;20645;-75
2022/04/27 12:08:09;;;;;;;5.30;3.90;;;22.20;59.60;;;;;;4933089;29;20244;-73
2022/04/27 12:10:45;;;;;;;6.78;3.67;;;22.40;59.70;;;;;;4934223;29;20220;-75
2022/04/27 12:13:17;;;;;;;5.00;4.18;;;21.80;60.60;;;;;;4933915;29;20842;-75
2022/04/27 12:15:49;;;;;;;5.82;3.20;;;21.00;64.10;;;;;;4931907;29;20212;-75
2022/04/27 12:18:16;;;;;;;7.32;3.05;;;21.20;64.80;;;;;;4932967;29;20597;-74
2022/04/27 12:20:44;;;;;;;4.18;2.85;;;20.60;66.30;;;;;;4934089;29;20196;-74
2022/04/27 12:23:15;;;;;;;4.25;2.00;;;20.70;66.10;;;;;;4933691;29;20236;-75
2022/04/27 12:26:01;;;;;;;2.20;2.00;;;20.90;65.50;;;;;;4933512;29;20212;-75
2022/04/27 12:28:29;;;;;;;7.88;3.05;;;20.90;65.50;;;;;;4933023;29;20211;-75
2022/04/27 12:31:08;;;;;;;8.50;2.10;;;20.90;65.80;;;;;;4916372;29;20208;-75
2022/04/27 12:33:38;;;;;;;2.72;1.83;;;20.90;65.10;;;;;;4933557;29;20262;-75
2022/04/27 12:39:06;;;;;;;5.15;2.05;;;20.90;64.60;;;;;;4933541;29;20590;-75
2022/04/27 12:41:47;;;;;;;2.97;2.25;;;20.50;64.90;;;;;;4916190;29;20216;-75
2022/04/27 12:44:24;;;;;;;4.72;2.45;;;20.70;65.50;;;;;;4933793;29;20212;-75
2022/04/27 12:47:08;;;;;;;6.82;4.07;;;20.50;65.90;;;;;;4933288;29;20764;-75
2022/04/27 12:49:35;;;;;;;4.50;2.17;;;20.50;65.60;;;;;;4932445;29;20717;-75
2022/04/27 12:52:29;;;;;;;3.50;2.42;;;20.30;66.00;;;;;;4882667;29;994246;-74
2022/04/27 12:55:09;;;;;;;6.05;2.88;;;20.30;67.60;;;;;;4933815;29;20211;-75
2022/04/27 12:57:53;;;;;;;2.63;2.42;;;20.70;67.40;;;;;;4916772;29;20219;-75
2022/04/27 13:00:41;;;;;;;3.28;2.45;;;20.50;67.00;;;;;;4933384;29;20592;-75
2022/04/27 13:03:10;;;;;;;3.72;2.75;;;20.60;68.00;;;;;;4912241;29;20293;-75
2022/04/27 13:05:37;;;;;;;4.22;2.38;;;20.50;66.30;;;;;;4933935;29;20212;-75
2022/04/27 13:08:06;;;;;;;3.70;2.17;;;20.40;66.00;;;;;;4933045;29;20223;-74
2022/04/27 13:13:17;;;;;;;4.32;2.50;;;20.70;65.20;;;;;;4933738;29;20296;-75
2022/04/27 13:15:49;;;;;;;2.92;2.50;;;20.80;65.00;;;;;;4916097;29;20611;-73